createdAt,value
2022-12-15T00:02:24.641Z,30.90
2022-12-15T00:05:10.225Z,28.80
2022-12-15T00:07:55.354Z,28.60
2022-12-15T00:10:40.471Z,29.53
2022-12-15T00:13:29.668Z,33.63
2022-12-15T00:16:15.497Z,30.37
2022-12-15T00:19:02.141Z,31.10
2022-12-15T00:21:47.352Z,29.97
2022-12-15T00:24:32.753Z,27.40
2022-12-15T00:27:18.055Z,28.87
2022-12-15T00:30:03.305Z,29.83
2022-12-15T00:32:48.751Z,36.57
2022-12-15T00:35:35.463Z,32.63
2022-12-15T00:38:25.820Z,28.87
2022-12-15T00:40:58.908Z,29.37
2022-12-15T00:43:27.692Z,33.77
2022-12-15T00:46:13.181Z,27.17
2022-12-15T00:48:41.181Z,31.03
2022-12-15T00:51:09.677Z,32.50
2022-12-15T00:53:55.440Z,31.07
2022-12-15T00:56:41.270Z,28.83
2022-12-15T00:59:26.549Z,27.20
2022-12-15T01:02:12.608Z,25.23
2022-12-15T01:04:57.950Z,30.10
2022-12-15T01:07:44.924Z,28.40
2022-12-15T01:10:35.261Z,27.50
2022-12-15T01:13:20.710Z,28.70
2022-12-15T01:16:06.247Z,26.80
2022-12-15T01:18:52.253Z,27.13
2022-12-15T01:21:24.680Z,27.03
2022-12-15T01:23:54.538Z,26.43
2022-12-15T01:26:22.466Z,24.50
2022-12-15T01:28:50.382Z,27.53
2022-12-15T01:31:18.216Z,28.10
2022-12-15T01:33:46.054Z,28.37
2022-12-15T01:36:14.254Z,26.97
2022-12-15T01:38:42.740Z,25.63
2022-12-15T01:41:12.357Z,26.83
2022-12-15T01:43:41.258Z,28.33
2022-12-15T01:46:11.061Z,26.17
2022-12-15T01:48:44.492Z,31.17
2022-12-15T01:51:16.939Z,25.37
2022-12-15T01:53:50.037Z,25.93
2022-12-15T01:56:20.334Z,24.40
2022-12-15T01:58:50.985Z,25.43
2022-12-15T02:01:19.183Z,23.77
2022-12-15T02:03:48.570Z,25.67
2022-12-15T02:06:17.735Z,28.20
2022-12-15T02:08:47.490Z,27.20
2022-12-15T02:11:38.329Z,23.33
2022-12-15T02:14:07.588Z,27.73
2022-12-15T02:16:46.651Z,29.43
2022-12-15T02:19:40.948Z,28.83
2022-12-15T02:22:20.642Z,27.20
2022-12-15T02:25:10.808Z,26.73
2022-12-15T02:27:49.588Z,25.63
2022-12-15T02:30:21.706Z,25.07
2022-12-15T02:32:56.671Z,26.23
2022-12-15T02:35:29.353Z,27.30
2022-12-15T02:37:57.219Z,24.40
2022-12-15T02:40:25.021Z,23.83
2022-12-15T02:42:55.129Z,26.33
2022-12-15T02:45:30.824Z,26.63
2022-12-15T02:48:08.085Z,24.33
2022-12-15T02:50:59.242Z,24.90
2022-12-15T02:53:39.704Z,25.70
2022-12-15T02:56:15.137Z,24.77
2022-12-15T02:58:49.006Z,26.43
2022-12-15T03:01:23.218Z,24.97
2022-12-15T03:03:51.980Z,25.93
2022-12-15T03:06:20.212Z,25.00
2022-12-15T03:08:47.967Z,23.57
2022-12-15T03:11:15.740Z,23.63
2022-12-15T03:13:43.553Z,25.40
2022-12-15T03:16:11.521Z,26.73
2022-12-15T03:18:41.001Z,28.17
2022-12-15T03:21:08.786Z,30.30
2022-12-15T03:23:36.542Z,28.40
2022-12-15T03:26:04.318Z,25.30
2022-12-15T03:28:32.112Z,26.87
2022-12-15T03:30:59.864Z,27.87
2022-12-15T03:33:27.796Z,28.13
2022-12-15T03:35:57.221Z,26.23
2022-12-15T03:38:25.031Z,27.40
2022-12-15T03:40:52.792Z,27.93
2022-12-15T03:43:20.611Z,27.10
2022-12-15T03:45:48.477Z,26.83
2022-12-15T03:48:16.307Z,29.80
2022-12-15T03:50:44.484Z,28.23
2022-12-15T03:53:13.598Z,28.40
2022-12-15T03:55:41.383Z,26.43
2022-12-15T03:58:09.122Z,31.30
2022-12-15T04:00:36.948Z,30.33
2022-12-15T04:03:05.048Z,25.60
2022-12-15T04:05:34.806Z,26.83
2022-12-15T04:08:03.219Z,25.90
2022-12-15T04:10:35.280Z,25.83
2022-12-15T04:13:05.468Z,25.07
2022-12-15T04:15:33.924Z,24.07
2022-12-15T04:18:02.758Z,27.70
2022-12-15T04:20:29.943Z,25.73
2022-12-15T04:22:58.181Z,28.97
2022-12-15T04:25:44.583Z,23.57
2022-12-15T04:28:32.612Z,28.43
2022-12-15T04:31:21.724Z,26.57
2022-12-15T04:34:09.840Z,25.93
2022-12-15T04:36:55.992Z,24.23
2022-12-15T04:39:41.904Z,23.47
2022-12-15T04:42:27.395Z,26.40
2022-12-15T04:45:20.628Z,27.23
2022-12-15T04:48:06.831Z,25.90
2022-12-15T04:50:52.481Z,27.03
2022-12-15T04:53:38.473Z,29.00
2022-12-15T04:56:28.995Z,26.27
2022-12-15T04:59:14.403Z,25.80
2022-12-15T05:02:01.731Z,29.00
2022-12-15T05:04:47.288Z,31.83
2022-12-15T05:07:32.728Z,27.20
2022-12-15T05:10:17.948Z,27.67
2022-12-15T05:13:03.039Z,33.73
2022-12-15T05:15:48.781Z,29.47
2022-12-15T05:18:35.613Z,29.50
2022-12-15T05:21:21.240Z,30.10
2022-12-15T05:24:06.493Z,26.37
2022-12-15T05:26:53.220Z,34.27
2022-12-15T05:29:39.003Z,31.80
2022-12-15T05:32:07.204Z,28.23
2022-12-15T05:34:37.261Z,27.57
2022-12-15T05:37:07.254Z,29.57
2022-12-15T05:39:35.161Z,25.43
2022-12-15T05:42:02.958Z,25.77
2022-12-15T05:44:30.763Z,33.77
2022-12-15T05:46:58.525Z,30.37
2022-12-15T05:49:26.506Z,34.27
2022-12-15T05:51:57.145Z,50.93
2022-12-15T05:54:24.904Z,42.17
2022-12-15T05:56:52.695Z,44.00
2022-12-15T05:59:20.690Z,34.53
2022-12-15T06:01:48.570Z,42.90
2022-12-15T06:04:16.446Z,30.87
2022-12-15T06:06:44.244Z,31.67
2022-12-15T06:09:13.438Z,29.83
2022-12-15T06:11:41.180Z,33.30
2022-12-15T06:14:09.591Z,30.57
2022-12-15T06:16:44.268Z,35.10
2022-12-15T06:19:19.071Z,26.73
2022-12-15T06:21:46.831Z,31.37
2022-12-15T06:24:15.927Z,29.93
2022-12-15T06:26:43.634Z,30.07
2022-12-15T06:29:13.159Z,31.53
2022-12-15T06:31:41.924Z,29.23
2022-12-15T06:34:12.394Z,31.00
2022-12-15T06:36:40.405Z,27.10
2022-12-15T06:39:09.605Z,26.23
2022-12-15T06:41:38.771Z,31.27
2022-12-15T06:44:06.829Z,31.77
2022-12-15T06:46:35.647Z,29.93
2022-12-15T06:49:03.760Z,31.53
2022-12-15T06:51:32.282Z,26.43
2022-12-15T06:54:01.724Z,27.73
2022-12-15T06:56:34.207Z,27.50
2022-12-15T06:59:04.891Z,27.07
2022-12-15T07:01:33.184Z,24.23
2022-12-15T07:04:02.736Z,26.63
2022-12-15T07:06:34.177Z,27.33
2022-12-15T07:09:02.241Z,30.07
2022-12-15T07:11:30.031Z,25.87
2022-12-15T07:13:58.037Z,27.40
2022-12-15T07:16:27.199Z,23.57
2022-12-15T07:18:55.047Z,26.93
2022-12-15T07:21:22.863Z,26.57
2022-12-15T07:23:55.753Z,28.33
2022-12-15T07:26:25.253Z,28.50
2022-12-15T07:28:53.596Z,25.50
2022-12-15T07:31:22.497Z,28.40
2022-12-15T07:33:52.411Z,29.37
2022-12-15T07:36:20.639Z,30.53
2022-12-15T07:38:50.305Z,28.63
2022-12-15T07:41:19.460Z,33.70
2022-12-15T07:43:48.216Z,32.00
2022-12-15T07:46:16.553Z,31.13
2022-12-15T07:48:44.447Z,31.53
2022-12-15T07:51:21.263Z,28.03
2022-12-15T07:53:50.951Z,26.17
2022-12-15T07:56:19.601Z,35.20
2022-12-15T07:58:47.815Z,31.60
2022-12-15T08:01:16.430Z,28.60
2022-12-15T08:03:44.981Z,66.90
2022-12-15T08:06:14.595Z,32.23
2022-12-15T08:08:45.187Z,30.83
2022-12-15T08:11:19.501Z,28.43
2022-12-15T08:14:04.537Z,28.40
2022-12-15T08:16:36.311Z,24.60
2022-12-15T08:19:05.225Z,25.77
2022-12-15T08:21:33.474Z,26.43
2022-12-15T08:24:02.590Z,31.33
2022-12-15T08:26:31.413Z,30.30
2022-12-15T08:29:31.798Z,30.50
2022-12-15T08:31:51.776Z,26.63
2022-12-15T08:34:19.613Z,29.77
2022-12-15T08:36:47.386Z,26.20
2022-12-15T08:39:16.561Z,26.47
2022-12-15T08:41:44.707Z,26.43
2022-12-15T08:44:12.484Z,27.50
2022-12-15T08:46:40.244Z,29.03
2022-12-15T08:49:08.667Z,27.40
2022-12-15T08:51:36.560Z,25.53
2022-12-15T08:54:04.509Z,26.17
2022-12-15T08:56:33.636Z,26.27
2022-12-15T08:59:02.692Z,29.07
2022-12-15T09:01:32.868Z,24.63
2022-12-15T09:04:01.420Z,22.27
2022-12-15T09:06:31.895Z,27.93
2022-12-15T09:09:01.338Z,28.70
2022-12-15T09:11:30.189Z,26.07
2022-12-15T09:13:59.898Z,27.60
2022-12-15T09:16:28.484Z,29.43
2022-12-15T09:18:58.422Z,28.23
2022-12-15T09:21:28.229Z,27.70
2022-12-15T09:24:00.528Z,23.70
2022-12-15T09:26:29.647Z,28.10
2022-12-15T09:28:58.965Z,27.10
2022-12-15T09:31:28.671Z,28.13
2022-12-15T09:33:58.667Z,28.27
2022-12-15T09:36:27.059Z,22.73
2022-12-15T09:38:55.160Z,25.73
2022-12-15T09:41:25.289Z,24.70
2022-12-15T09:43:56.717Z,25.63
2022-12-15T09:46:44.012Z,29.43
2022-12-15T09:49:25.036Z,23.80
2022-12-15T09:51:58.997Z,26.67
2022-12-15T09:54:30.223Z,24.30
2022-12-15T09:56:59.504Z,27.87
2022-12-15T09:59:33.232Z,27.73
2022-12-15T10:02:22.909Z,24.13
2022-12-15T10:04:57.153Z,26.87
2022-12-15T10:07:29.819Z,29.37
2022-12-15T10:09:57.738Z,26.87
2022-12-15T10:12:28.905Z,23.63
2022-12-15T10:15:05.494Z,24.87
2022-12-15T10:17:42.357Z,26.70
2022-12-15T10:20:18.403Z,25.63
2022-12-15T10:22:50.364Z,24.83
2022-12-15T10:25:27.527Z,23.03
2022-12-15T10:28:13.910Z,21.07
2022-12-15T10:30:50.760Z,21.70
2022-12-15T10:33:21.594Z,23.73
2022-12-15T10:35:50.106Z,24.83
2022-12-15T10:38:26.910Z,21.90
2022-12-15T10:40:56.204Z,22.97
2022-12-15T10:43:29.644Z,22.37
2022-12-15T10:46:02.973Z,21.17
2022-12-15T10:48:32.229Z,20.60
2022-12-15T10:51:15.050Z,23.43
2022-12-15T10:53:50.365Z,19.47
2022-12-15T10:56:30.686Z,22.73
2022-12-15T10:59:03.581Z,19.20
2022-12-15T11:01:33.550Z,20.60
2022-12-15T11:04:02.871Z,23.67
2022-12-15T11:06:32.797Z,19.57
2022-12-15T11:09:10.706Z,22.83
2022-12-15T11:12:05.616Z,17.93
2022-12-15T11:14:44.172Z,19.43
2022-12-15T11:17:16.622Z,21.77
2022-12-15T11:19:55.208Z,19.90
2022-12-15T11:22:32.846Z,19.83
2022-12-15T11:25:03.474Z,19.93
2022-12-15T11:27:34.428Z,19.67
2022-12-15T11:30:06.378Z,19.53
2022-12-15T11:32:35.266Z,18.87
2022-12-15T11:35:04.927Z,21.90
2022-12-15T11:37:41.827Z,19.10
2022-12-15T11:40:24.969Z,22.30
2022-12-15T11:43:06.439Z,19.47
2022-12-15T11:45:38.249Z,23.13
2022-12-15T11:48:13.059Z,17.33
2022-12-15T11:50:51.209Z,20.00
2022-12-15T11:53:37.929Z,21.53
2022-12-15T11:56:12.298Z,19.17
2022-12-15T11:58:54.792Z,19.70
2022-12-15T12:01:36.857Z,19.17
2022-12-15T12:04:13.242Z,16.57
2022-12-15T12:06:49.348Z,20.67
2022-12-15T12:09:29.349Z,20.43
2022-12-15T12:12:04.452Z,18.37
2022-12-15T12:14:41.417Z,20.73
2022-12-15T12:17:14.892Z,18.27
2022-12-15T12:19:44.696Z,17.60
2022-12-15T12:22:25.284Z,16.43
2022-12-15T12:24:56.984Z,17.07
2022-12-15T12:27:30.257Z,16.97
2022-12-15T12:30:01.946Z,15.73
2022-12-15T12:32:36.788Z,15.83
2022-12-15T12:35:30.655Z,17.17
2022-12-15T12:38:03.877Z,17.23
2022-12-15T12:40:38.309Z,14.70
2022-12-15T12:43:11.863Z,17.40
2022-12-15T12:45:50.359Z,15.73
2022-12-15T12:48:24.776Z,18.23
2022-12-15T12:50:52.949Z,18.60
2022-12-15T12:53:35.727Z,15.17
2022-12-15T12:56:03.714Z,19.00
2022-12-15T12:58:32.674Z,17.37
2022-12-15T13:01:20.020Z,14.97
2022-12-15T13:04:07.454Z,15.80
2022-12-15T13:06:58.116Z,14.77
2022-12-15T13:09:39.368Z,14.20
2022-12-15T13:12:50.700Z,18.97
2022-12-15T13:15:30.828Z,18.27
2022-12-15T13:18:00.902Z,16.50
2022-12-15T13:20:29.674Z,14.40
2022-12-15T13:23:19.481Z,16.63
2022-12-15T13:26:03.253Z,14.33
2022-12-15T13:28:43.611Z,17.60
2022-12-15T13:31:27.468Z,17.73
2022-12-15T13:34:13.363Z,18.50
2022-12-15T13:39:58.345Z,15.27
2022-12-15T13:42:52.900Z,19.50
2022-12-15T13:45:41.094Z,18.03
2022-12-15T13:48:18.069Z,18.87
2022-12-15T13:50:51.261Z,17.23
2022-12-15T13:53:22.229Z,19.20
2022-12-15T13:56:02.264Z,20.43
2022-12-15T13:58:33.934Z,20.00
2022-12-15T14:01:03.676Z,16.97
2022-12-15T14:03:32.036Z,17.27
2022-12-15T14:06:00.884Z,20.33
2022-12-15T14:08:30.100Z,20.60
2022-12-15T14:10:59.115Z,19.67
2022-12-15T14:13:29.659Z,18.53
2022-12-15T14:16:00.911Z,22.00
2022-12-15T14:18:31.225Z,20.97
2022-12-15T14:20:59.610Z,16.23
2022-12-15T14:23:29.906Z,18.50
2022-12-15T14:26:04.182Z,16.30
2022-12-15T14:28:33.676Z,18.57
2022-12-15T14:31:05.118Z,15.53
2022-12-15T14:33:36.184Z,20.60
2022-12-15T14:36:07.450Z,21.70
2022-12-15T14:38:42.401Z,19.60
2022-12-15T14:41:13.367Z,18.13
2022-12-15T14:43:41.470Z,18.97
2022-12-15T14:46:12.612Z,19.37
2022-12-15T14:48:42.669Z,19.27
2022-12-15T14:51:12.034Z,15.23
2022-12-15T14:53:41.544Z,19.17
2022-12-15T14:56:30.057Z,19.80
2022-12-15T14:59:20.319Z,20.30
2022-12-15T15:03:05.496Z,19.20
2022-12-15T15:03:14.738Z,20.80
2022-12-15T15:04:42.659Z,18.90
2022-12-15T15:07:18.417Z,19.37
2022-12-15T15:09:46.980Z,20.33
2022-12-15T15:12:16.803Z,19.83
2022-12-15T15:14:46.538Z,20.70
2022-12-15T15:17:24.741Z,22.33
2022-12-15T15:19:54.951Z,24.60
2022-12-15T15:22:30.848Z,25.60
2022-12-15T15:24:58.767Z,25.17
2022-12-15T15:27:29.590Z,20.03
2022-12-15T15:30:13.442Z,24.67
2022-12-15T15:32:52.920Z,24.70
2022-12-15T15:35:20.958Z,21.90
2022-12-15T15:37:48.891Z,25.07
2022-12-15T15:40:18.606Z,27.70
2022-12-15T15:42:46.905Z,21.57
2022-12-15T15:45:15.708Z,27.97
2022-12-15T15:47:46.683Z,26.33
2022-12-15T15:50:17.925Z,30.67
2022-12-15T15:52:45.735Z,24.13
2022-12-15T15:55:17.986Z,31.13
2022-12-15T15:57:45.729Z,23.70
2022-12-15T16:00:19.525Z,26.73
2022-12-15T16:02:47.596Z,28.03
2022-12-15T16:05:17.107Z,27.23
2022-12-15T16:07:46.491Z,25.07
2022-12-15T16:10:16.597Z,27.67
2022-12-15T16:12:46.543Z,27.93
2022-12-15T16:15:16.615Z,34.50
2022-12-15T16:17:44.609Z,43.20
2022-12-15T16:20:13.822Z,44.77
2022-12-15T16:22:43.807Z,40.13
2022-12-15T16:25:15.707Z,33.57
2022-12-15T16:27:43.638Z,34.03
2022-12-15T16:30:17.427Z,35.83
2022-12-15T16:32:45.189Z,32.90
2022-12-15T16:35:13.479Z,33.27
2022-12-15T16:37:46.591Z,30.37
2022-12-15T16:40:16.651Z,29.77
2022-12-15T16:42:46.037Z,30.03
2022-12-15T16:45:18.129Z,29.40
2022-12-15T16:47:46.117Z,32.13
2022-12-15T16:50:15.832Z,27.00
2022-12-15T16:52:45.496Z,30.67
2022-12-15T16:55:19.729Z,32.37
2022-12-15T16:57:48.379Z,33.23
2022-12-15T17:00:18.600Z,35.17
2022-12-15T17:02:46.699Z,31.37
2022-12-15T17:05:14.864Z,30.93
2022-12-15T17:07:43.525Z,41.87
2022-12-15T17:10:18.820Z,45.03
2022-12-15T17:12:47.320Z,55.17
2022-12-15T17:15:23.742Z,48.97
2022-12-15T17:17:52.167Z,41.93
2022-12-15T17:20:30.236Z,33.07
2022-12-15T17:23:00.515Z,30.80
2022-12-15T17:26:09.193Z,29.87
2022-12-15T17:28:25.773Z,34.57
2022-12-15T17:30:53.615Z,35.80
2022-12-15T17:33:23.204Z,38.27
2022-12-15T17:35:52.887Z,39.17
2022-12-15T17:38:21.826Z,41.27
2022-12-15T17:40:51.974Z,40.67
2022-12-15T17:43:21.736Z,39.37
2022-12-15T17:45:50.817Z,44.00
2022-12-15T17:48:18.960Z,47.47
2022-12-15T17:50:49.819Z,41.57
2022-12-15T17:53:18.713Z,47.97
2022-12-15T17:55:46.918Z,67.53
2022-12-15T17:58:20.507Z,69.83
2022-12-15T18:00:51.786Z,64.70
2022-12-15T18:03:21.252Z,63.80
2022-12-15T18:05:49.700Z,56.30
2022-12-15T18:08:19.432Z,55.40
2022-12-15T18:10:48.650Z,50.53
2022-12-15T18:13:19.084Z,50.60
2022-12-15T18:15:47.760Z,50.57
2022-12-15T18:18:16.365Z,51.27
2022-12-15T18:20:44.204Z,48.40
2022-12-15T18:23:15.899Z,52.93
2022-12-15T18:25:44.403Z,50.27
2022-12-15T18:28:21.860Z,45.57
2022-12-15T18:30:50.551Z,49.20
2022-12-15T18:33:18.267Z,49.47
2022-12-15T18:35:47.800Z,50.17
2022-12-15T18:38:17.316Z,47.60
2022-12-15T18:40:46.421Z,49.93
2022-12-15T18:43:16.371Z,52.40
2022-12-15T18:45:46.086Z,52.40
2022-12-15T18:48:17.654Z,48.00
2022-12-15T18:50:46.409Z,58.17
2022-12-15T18:53:19.312Z,61.77
2022-12-15T18:55:48.095Z,56.33
2022-12-15T18:58:22.373Z,57.40
2022-12-15T19:00:52.446Z,54.70
2022-12-15T19:03:20.893Z,55.97
2022-12-15T19:05:49.832Z,53.23
2022-12-15T19:08:20.092Z,54.70
2022-12-15T19:10:51.857Z,52.47
2022-12-15T19:13:21.673Z,50.40
2022-12-15T19:15:51.332Z,52.00
2022-12-15T19:18:38.671Z,49.73
2022-12-15T19:21:35.821Z,45.43
2022-12-15T19:24:03.867Z,38.07
2022-12-15T19:26:31.746Z,46.10
2022-12-15T19:29:00.021Z,44.57
2022-12-15T19:31:29.407Z,51.90
2022-12-15T19:33:57.161Z,55.93
2022-12-15T19:36:25.267Z,84.87
2022-12-15T19:38:55.525Z,195.23
2022-12-15T19:41:23.387Z,178.77
2022-12-15T19:43:51.193Z,74.67
2022-12-15T19:46:21.588Z,62.73
2022-12-15T19:48:50.727Z,65.50
2022-12-15T19:51:20.971Z,62.90
2022-12-15T19:53:50.054Z,70.67
2022-12-15T19:56:21.703Z,65.60
2022-12-15T19:58:50.410Z,68.13
2022-12-15T20:01:19.913Z,72.00
2022-12-15T20:03:50.914Z,61.73
2022-12-15T20:06:20.575Z,63.50
2022-12-15T20:08:50.440Z,70.57
2022-12-15T20:11:20.046Z,66.10
2022-12-15T20:13:48.651Z,59.87
2022-12-15T20:16:18.837Z,61.30
2022-12-15T20:18:47.117Z,65.73
2022-12-15T20:21:22.092Z,62.77
2022-12-15T20:23:54.117Z,55.97
2022-12-15T20:26:23.527Z,62.50
2022-12-15T20:28:51.943Z,62.63
2022-12-15T20:31:22.204Z,69.27
2022-12-15T20:33:50.236Z,68.93
2022-12-15T20:36:20.629Z,72.53
2022-12-15T20:38:48.847Z,68.60
2022-12-15T20:41:18.494Z,62.50
2022-12-15T20:43:46.707Z,61.77
2022-12-15T20:46:17.031Z,52.67
2022-12-15T20:48:45.645Z,54.37
2022-12-15T20:51:17.102Z,51.20
2022-12-15T20:53:46.492Z,48.87
2022-12-15T20:56:14.384Z,49.57
2022-12-15T20:58:43.032Z,49.73
2022-12-15T21:01:19.289Z,42.97
2022-12-15T21:03:48.192Z,44.73
2022-12-15T21:06:16.105Z,51.53
2022-12-15T21:08:43.849Z,49.43
2022-12-15T21:11:16.172Z,48.27
2022-12-15T21:13:43.961Z,48.67
2022-12-15T21:16:16.571Z,47.53
2022-12-15T21:21:34.803Z,51.60
2022-12-15T21:24:05.568Z,49.73
2022-12-15T21:26:34.749Z,51.00
2022-12-15T21:29:03.056Z,53.47
2022-12-15T21:31:30.842Z,53.10
2022-12-15T21:33:58.651Z,48.50
2022-12-15T21:36:28.056Z,56.00
2022-12-15T21:38:55.991Z,54.63
2022-12-15T21:41:24.512Z,49.80
2022-12-15T21:43:53.591Z,47.03
2022-12-15T21:46:28.384Z,47.63
2022-12-15T21:49:13.910Z,45.80
2022-12-15T21:51:43.359Z,56.93
2022-12-15T21:54:17.749Z,47.67
2022-12-15T21:56:46.168Z,48.23
2022-12-15T21:59:17.192Z,48.13
2022-12-15T22:01:45.092Z,49.77
2022-12-15T22:04:18.424Z,50.40
2022-12-15T22:06:50.588Z,46.93
2022-12-15T22:09:19.416Z,54.80
2022-12-15T22:11:49.165Z,53.27
2022-12-15T22:14:25.150Z,66.63
2022-12-15T22:16:53.291Z,55.53
2022-12-15T22:19:21.349Z,51.67
2022-12-15T22:21:49.249Z,60.53
2022-12-15T22:24:17.025Z,57.17
2022-12-15T22:26:45.031Z,58.90
2022-12-15T22:29:14.123Z,55.40
2022-12-15T22:31:43.283Z,52.50
2022-12-15T22:34:14.628Z,55.70
2022-12-15T22:36:42.412Z,50.20
2022-12-15T22:39:11.146Z,53.07
2022-12-15T22:41:40.244Z,48.80
2022-12-15T22:44:16.180Z,46.87
2022-12-15T22:46:45.528Z,54.33
2022-12-15T22:49:15.424Z,54.97
2022-12-15T22:51:43.131Z,50.73
2022-12-15T22:54:18.753Z,53.83
2022-12-15T22:56:47.652Z,47.80
2022-12-15T22:59:20.157Z,48.67
2022-12-15T23:01:49.358Z,47.43
2022-12-15T23:04:17.232Z,47.07
2022-12-15T23:06:45.309Z,45.20
2022-12-15T23:09:13.180Z,51.13
2022-12-15T23:11:41.369Z,47.73
2022-12-15T23:14:10.896Z,50.50
2022-12-15T23:16:37.934Z,51.40
2022-12-15T23:19:08.632Z,45.10
2022-12-15T23:21:37.137Z,44.80
2022-12-15T23:24:05.054Z,39.63
2022-12-15T23:26:32.825Z,46.40
2022-12-15T23:29:00.649Z,44.73
2022-12-15T23:31:28.996Z,40.23
2022-12-15T23:33:56.843Z,44.03
2022-12-15T23:36:25.982Z,41.77
2022-12-15T23:38:55.059Z,42.80
2022-12-15T23:41:22.841Z,42.87
2022-12-15T23:43:51.084Z,45.13
2022-12-15T23:46:19.694Z,45.50
2022-12-15T23:48:47.520Z,44.13
2022-12-15T23:51:16.844Z,45.53
2022-12-15T23:53:47.287Z,43.63
2022-12-15T23:56:17.246Z,39.13
2022-12-15T23:58:46.619Z,40.00
